CMA CGM Volga — 5BJR2 — position and weather

sailwx.info

Track history (hours):
 
Tides and Currents Weather Stations Pressure Air Temp Water Temp Dewpoint Dewpoint Depression Visibility Wind Speed Wind Dir Waves Ship Positions

CMA CGM Volga

Last reported at 2014-Oct-31 23:32 UTC. Time now 2014-Oct-31 23:55 UTC.
Position N 54°27' E 018°50'.

Length 184 m; draft 7.2 m.

Type: Cargo ship. MMSI: 212456000.

Date/timePositionNaut miles runAvg speedWind from/ knotsBaromVisibWave heightAir tempDewpointWater temp
2014-Oct-31 23:32N 54°27' E 018°50'0 0.0
2014-Oct-31 22:32N 54°27' E 018°50'0 0.0
2014-Oct-31 21:32N 54°27' E 018°50'0 0.1
2014-Oct-31 20:32N 54°27' E 018°50'0 0.1
2014-Oct-31 19:32N 54°27' E 018°50'0 0.1
2014-Oct-31 18:33N 54°27' E 018°50'7 7.2
2014-Oct-31 17:34N 54°31' E 018°60'1211.6
2014-Oct-31 16:33N 54°42' E 019°07'1313.0
2014-Oct-31 15:33N 54°45' E 019°29'1312.8
2014-Oct-31 14:33N 54°40' E 019°50'3 0.1
2014-Oct-29 11:32N 54°38' E 019°54'7 7.5
2014-Oct-29 10:33N 54°40' E 019°42'0 0.4
2014-Oct-29 09:33N 54°40' E 019°42'0 0.5
2014-Oct-29 08:33N 54°40' E 019°42'0 0.3
2014-Oct-29 07:33N 54°41' E 019°42'1 0.7
2014-Oct-29 06:33N 54°41' E 019°43'3 3.1
2014-Oct-29 05:33N 54°43' E 019°39'6 6.3
2014-Oct-29 04:33N 54°47' E 019°30'1 1.2
2014-Oct-29 03:33N 54°46' E 019°29'1 1.1
2014-Oct-29 02:33N 54°45' E 019°27'1 1.3
2014-Oct-29 01:33N 54°44' E 019°26'1111.0
2014-Oct-29 00:34N 54°42' E 019°08'1313.1
2014-Oct-28 23:34N 54°29' E 019°01'1211.7
2014-Oct-28 22:33N 54°24' E 018°43'0 0.5
2014-Oct-28 21:33N 54°23' E 018°43'0 0.0
2014-Oct-28 20:33N 54°23' E 018°43'0 0.0
2014-Oct-28 19:33N 54°23' E 018°43'0 0.0
2014-Oct-28 18:33N 54°23' E 018°43'0 0.0
2014-Oct-28 17:33N 54°23' E 018°43'0 0.0
2014-Oct-28 16:33N 54°23' E 018°43'0 0.0
2014-Oct-28 15:33N 54°23' E 018°43'0 0.0
2014-Oct-28 14:33N 54°23' E 018°43'0 0.0
2014-Oct-28 13:33N 54°23' E 018°43'0 0.0
2014-Oct-28 12:33N 54°23' E 018°43'0 0.0
2014-Oct-28 11:33N 54°23' E 018°43'0 0.0
2014-Oct-28 10:33N 54°23' E 018°43'0 0.0
2014-Oct-28 09:33N 54°23' E 018°43'4 3.7
2014-Oct-28 08:33N 54°25' E 018°49'2 1.7
2014-Oct-28 07:31N 54°27' E 018°50'0 0.0
2014-Oct-28 06:31N 54°27' E 018°50'0 0.0
2014-Oct-28 05:31N 54°27' E 018°50'0 0.0
2014-Oct-28 04:31N 54°27' E 018°50'0 0.0
2014-Oct-28 03:31N 54°27' E 018°50'0 0.0
2014-Oct-28 02:31N 54°27' E 018°50'0 0.0
2014-Oct-28 01:31N 54°27' E 018°50'0 0.0
2014-Oct-28 00:31N 54°27' E 018°50'0 0.0
2014-Oct-27 23:31N 54°27' E 018°50'0 0.0
2014-Oct-27 22:31N 54°27' E 018°50'0 0.0
2014-Oct-27 21:31N 54°27' E 018°50'0 0.0
2014-Oct-27 20:31N 54°27' E 018°50'0 0.0
2014-Oct-27 19:31N 54°27' E 018°50'0 0.0
2014-Oct-27 18:31N 54°27' E 018°50'0 0.0
2014-Oct-27 17:31N 54°27' E 018°50'0 0.0
2014-Oct-27 16:31N 54°27' E 018°50'0 0.0
2014-Oct-27 15:31N 54°27' E 018°50'0 0.0
2014-Oct-27 14:31N 54°27' E 018°50'0 0.0
2014-Oct-27 13:31N 54°27' E 018°50'0 0.0
2014-Oct-27 12:31N 54°27' E 018°50'0 0.0
2014-Oct-27 11:33N 54°27' E 018°50'0 0.0
2014-Oct-27 10:32N 54°27' E 018°50'0 0.0
2014-Oct-27 09:32N 54°27' E 018°50'0 0.0
2014-Oct-27 08:32N 54°27' E 018°50'0 0.0
2014-Oct-27 07:33N 54°27' E 018°50'0 0.0
2014-Oct-27 06:33N 54°27' E 018°50'0 0.0
2014-Oct-27 05:33N 54°27' E 018°50'0 0.0
2014-Oct-27 04:33N 54°27' E 018°50'0 0.0
2014-Oct-27 03:33N 54°27' E 018°50'0 0.0
2014-Oct-27 02:33N 54°27' E 018°50'0 0.0
2014-Oct-27 01:32N 54°27' E 018°50'0 0.0
2014-Oct-27 00:32N 54°27' E 018°50'0 0.0
2014-Oct-26 23:32N 54°27' E 018°50'0 0.0
2014-Oct-26 22:32N 54°27' E 018°50'0 0.1
2014-Oct-26 21:33N 54°27' E 018°50'8 7.8
2014-Oct-26 20:34N 54°32' E 019°00'1111.2
2014-Oct-26 19:34N 54°43' E 019°03'1211.8
2014-Oct-26 18:33N 54°54' E 019°11'1211.8
2014-Oct-26 17:34N 55°05' E 019°18'1312.0
2014-Oct-26 16:30N 55°16' E 019°26'  
2014-Oct-24 00:20N 59°38' E 023°24'1112.3
2014-Oct-23 23:24N 59°41' E 023°45'2412.2
2014-Oct-23 21:27N 59°44' E 024°32'1213.6
2014-Oct-23 20:34N 59°37' E 024°51'2 0.1
2014-Oct-22 14:33N 59°35' E 024°52'1111.0
2014-Oct-22 13:33N 59°42' E 024°35'1111.2
2014-Oct-22 12:33N 59°41' E 024°14'11 9.3
2014-Oct-22 11:24N 59°35' E 023°55'8 1.5
2014-Oct-22 06:14N 59°35' E 023°40'  
Track history (hours):
 
Tides and Currents Weather Stations Pressure Air Temp Water Temp Dewpoint Dewpoint Depression Visibility Wind Speed Wind Dir Waves Ship Positions

CMA CGM Volga

Last reported at 2014-Oct-31 23:32 UTC. Time now 2014-Oct-31 23:55 UTC.
Position N 54°27' E 018°50'.

Length 184 m; draft 7.2 m.

Type: Cargo ship. MMSI: 212456000.

Date/timePositionNaut miles runAvg speedWind from/ knotsBaromVisibWave heightAir tempDewpointWater temp
2014-Oct-31 23:32N 54°27' E 018°50'0 0.0
2014-Oct-31 22:32N 54°27' E 018°50'0 0.0
2014-Oct-31 21:32N 54°27' E 018°50'0 0.1
2014-Oct-31 20:32N 54°27' E 018°50'0 0.1
2014-Oct-31 19:32N 54°27' E 018°50'0 0.1
2014-Oct-31 18:33N 54°27' E 018°50'7 7.2
2014-Oct-31 17:34N 54°31' E 018°60'1211.6
2014-Oct-31 16:33N 54°42' E 019°07'1313.0
2014-Oct-31 15:33N 54°45' E 019°29'1312.8
2014-Oct-31 14:33N 54°40' E 019°50'3 0.1
2014-Oct-29 11:32N 54°38' E 019°54'7 7.5
2014-Oct-29 10:33N 54°40' E 019°42'0 0.4
2014-Oct-29 09:33N 54°40' E 019°42'0 0.5
2014-Oct-29 08:33N 54°40' E 019°42'0 0.3
2014-Oct-29 07:33N 54°41' E 019°42'1 0.7
2014-Oct-29 06:33N 54°41' E 019°43'3 3.1
2014-Oct-29 05:33N 54°43' E 019°39'6 6.3
2014-Oct-29 04:33N 54°47' E 019°30'1 1.2
2014-Oct-29 03:33N 54°46' E 019°29'1 1.1
2014-Oct-29 02:33N 54°45' E 019°27'1 1.3
2014-Oct-29 01:33N 54°44' E 019°26'1111.0
2014-Oct-29 00:34N 54°42' E 019°08'1313.1
2014-Oct-28 23:34N 54°29' E 019°01'1211.7
2014-Oct-28 22:33N 54°24' E 018°43'0 0.5
2014-Oct-28 21:33N 54°23' E 018°43'0 0.0
2014-Oct-28 20:33N 54°23' E 018°43'0 0.0
2014-Oct-28 19:33N 54°23' E 018°43'0 0.0
2014-Oct-28 18:33N 54°23' E 018°43'0 0.0
2014-Oct-28 17:33N 54°23' E 018°43'0 0.0
2014-Oct-28 16:33N 54°23' E 018°43'0 0.0
2014-Oct-28 15:33N 54°23' E 018°43'0 0.0
2014-Oct-28 14:33N 54°23' E 018°43'0 0.0
2014-Oct-28 13:33N 54°23' E 018°43'0 0.0
2014-Oct-28 12:33N 54°23' E 018°43'0 0.0
2014-Oct-28 11:33N 54°23' E 018°43'0 0.0
2014-Oct-28 10:33N 54°23' E 018°43'0 0.0
2014-Oct-28 09:33N 54°23' E 018°43'4 3.7
2014-Oct-28 08:33N 54°25' E 018°49'2 1.7
2014-Oct-28 07:31N 54°27' E 018°50'0 0.0
2014-Oct-28 06:31N 54°27' E 018°50'0 0.0
2014-Oct-28 05:31N 54°27' E 018°50'0 0.0
2014-Oct-28 04:31N 54°27' E 018°50'0 0.0
2014-Oct-28 03:31N 54°27' E 018°50'0 0.0
2014-Oct-28 02:31N 54°27' E 018°50'0 0.0
2014-Oct-28 01:31N 54°27' E 018°50'0 0.0
2014-Oct-28 00:31N 54°27' E 018°50'0 0.0
2014-Oct-27 23:31N 54°27' E 018°50'0 0.0
2014-Oct-27 22:31N 54°27' E 018°50'0 0.0
2014-Oct-27 21:31N 54°27' E 018°50'0 0.0
2014-Oct-27 20:31N 54°27' E 018°50'0 0.0
2014-Oct-27 19:31N 54°27' E 018°50'0 0.0
2014-Oct-27 18:31N 54°27' E 018°50'0 0.0
2014-Oct-27 17:31N 54°27' E 018°50'0 0.0
2014-Oct-27 16:31N 54°27' E 018°50'0 0.0
2014-Oct-27 15:31N 54°27' E 018°50'0 0.0
2014-Oct-27 14:31N 54°27' E 018°50'0 0.0
2014-Oct-27 13:31N 54°27' E 018°50'0 0.0
2014-Oct-27 12:31N 54°27' E 018°50'0 0.0
2014-Oct-27 11:33N 54°27' E 018°50'0 0.0
2014-Oct-27 10:32N 54°27' E 018°50'0 0.0
2014-Oct-27 09:32N 54°27' E 018°50'0 0.0
2014-Oct-27 08:32N 54°27' E 018°50'0 0.0
2014-Oct-27 07:33N 54°27' E 018°50'0 0.0
2014-Oct-27 06:33N 54°27' E 018°50'0 0.0
2014-Oct-27 05:33N 54°27' E 018°50'0 0.0
2014-Oct-27 04:33N 54°27' E 018°50'0 0.0
2014-Oct-27 03:33N 54°27' E 018°50'0 0.0
2014-Oct-27 02:33N 54°27' E 018°50'0 0.0
2014-Oct-27 01:32N 54°27' E 018°50'0 0.0
2014-Oct-27 00:32N 54°27' E 018°50'0 0.0
2014-Oct-26 23:32N 54°27' E 018°50'0 0.0
2014-Oct-26 22:32N 54°27' E 018°50'0 0.1
2014-Oct-26 21:33N 54°27' E 018°50'8 7.8
2014-Oct-26 20:34N 54°32' E 019°00'1111.2
2014-Oct-26 19:34N 54°43' E 019°03'1211.8
2014-Oct-26 18:33N 54°54' E 019°11'1211.8
2014-Oct-26 17:34N 55°05' E 019°18'1312.0
2014-Oct-26 16:30N 55°16' E 019°26'  
2014-Oct-24 00:20N 59°38' E 023°24'1112.3
2014-Oct-23 23:24N 59°41' E 023°45'2412.2
2014-Oct-23 21:27N 59°44' E 024°32'1213.6
2014-Oct-23 20:34N 59°37' E 024°51'2 0.1
2014-Oct-22 14:33N 59°35' E 024°52'1111.0
2014-Oct-22 13:33N 59°42' E 024°35'1111.2
2014-Oct-22 12:33N 59°41' E 024°14'11 9.3
2014-Oct-22 11:24N 59°35' E 023°55'8 1.5
2014-Oct-22 06:14N 59°35' E 023°40'  

Dump ship's entire track history